TVF08E LFBD-LFML
Flight info
| Callsign | TVF08E |
|---|---|
| Flight time | 0h 53m |
| Altitude | 33000 |
| Route | OBLOC DCT SECHE DCT SOVET DCT FJR |
| Aircraft | B738/M-SDE2E3FGHIRWXY/LB1 |
Departure
| Time | 2026-05-06 19:48 |
|---|---|
| Airport | Bordeaux–Mérignac Airport (LFBD) |
Arrival
| Time | 2026-05-06 20:41 |
|---|---|
| Airport | Marseille Provence Airport (LFML) |
| Time | Latitude | Longitude | Altitude | Speed | Heading |
|---|---|---|---|---|---|
| 2026-05-06 19:22 | 44.83220 | -0.70314 | 162 ft | 0 kts | 121° |
| 2026-05-06 19:33 | 44.83226 | -0.70328 | 162 ft | 4 kts | 124° |
| 2026-05-06 19:33 | 44.83243 | -0.70357 | 162 ft | 4 kts | 137° |
| 2026-05-06 19:34 | 44.83265 | -0.70377 | 162 ft | 4 kts | 169° |
| 2026-05-06 19:34 | 44.83283 | -0.70373 | 162 ft | 1 kts | 224° |
| 2026-05-06 19:34 | 44.83286 | -0.70369 | 162 ft | 1 kts | 224° |
| 2026-05-06 19:40 | 44.83285 | -0.70371 | 162 ft | 1 kts | 224° |
| 2026-05-06 19:41 | 44.83266 | -0.70396 | 162 ft | 7 kts | 224° |
| 2026-05-06 19:41 | 44.83217 | -0.70465 | 162 ft | 12 kts | 228° |
| 2026-05-06 19:41 | 44.83158 | -0.70549 | 163 ft | 12 kts | 223° |
| 2026-05-06 19:41 | 44.83099 | -0.70627 | 163 ft | 12 kts | 226° |
| 2026-05-06 19:42 | 44.83045 | -0.70709 | 163 ft | 11 kts | 227° |
| 2026-05-06 19:42 | 44.82987 | -0.70779 | 164 ft | 11 kts | 212° |
| 2026-05-06 19:42 | 44.82920 | -0.70805 | 165 ft | 11 kts | 145° |
| 2026-05-06 19:42 | 44.82893 | -0.70712 | 165 ft | 10 kts | 105° |
| 2026-05-06 19:43 | 44.82873 | -0.70616 | 166 ft | 10 kts | 107° |
| 2026-05-06 19:43 | 44.82852 | -0.70521 | 166 ft | 10 kts | 107° |
| 2026-05-06 19:43 | 44.82829 | -0.70404 | 166 ft | 15 kts | 105° |
| 2026-05-06 19:43 | 44.82797 | -0.70252 | 167 ft | 17 kts | 108° |
| 2026-05-06 19:44 | 44.82761 | -0.70085 | 167 ft | 19 kts | 107° |
| 2026-05-06 19:44 | 44.82721 | -0.69954 | 168 ft | 13 kts | 142° |
| 2026-05-06 19:44 | 44.82693 | -0.69944 | 168 ft | 0 kts | 187° |
| 2026-05-06 19:45 | 44.82691 | -0.69944 | 168 ft | 2 kts | 187° |
| 2026-05-06 19:45 | 44.82661 | -0.69951 | 168 ft | 5 kts | 192° |
| 2026-05-06 19:45 | 44.82608 | -0.69975 | 169 ft | 13 kts | 198° |
| 2026-05-06 19:46 | 44.82556 | -0.70066 | 169 ft | 12 kts | 287° |
| 2026-05-06 19:46 | 44.82559 | -0.70080 | 169 ft | 0 kts | 285° |
| 2026-05-06 19:47 | 44.82566 | -0.70114 | 169 ft | 24 kts | 285° |
| 2026-05-06 19:47 | 44.82696 | -0.70738 | 165 ft | 107 kts | 286° |
| 2026-05-06 19:47 | 44.82980 | -0.72067 | 216 ft | 171 kts | 287° |
| 2026-05-06 19:48 | 44.83352 | -0.73794 | 897 ft | 189 kts | 288° |
| 2026-05-06 19:48 | 44.83745 | -0.75583 | 1961 ft | 189 kts | 290° |
| 2026-05-06 19:48 | 44.84132 | -0.77330 | 2958 ft | 192 kts | 290° |
| 2026-05-06 19:48 | 44.84545 | -0.79164 | 3758 ft | 199 kts | 290° |
| 2026-05-06 19:49 | 44.84980 | -0.81033 | 4586 ft | 202 kts | 291° |
| 2026-05-06 19:49 | 44.85441 | -0.82938 | 5335 ft | 209 kts | 291° |
| 2026-05-06 19:49 | 44.85943 | -0.84933 | 5847 ft | 227 kts | 291° |
| 2026-05-06 19:49 | 44.86488 | -0.87083 | 6484 ft | 236 kts | 291° |
| 2026-05-06 19:50 | 44.87057 | -0.89283 | 7196 ft | 241 kts | 291° |
| 2026-05-06 19:50 | 44.87680 | -0.91485 | 7901 ft | 244 kts | 302° |
| 2026-05-06 19:50 | 44.88956 | -0.93014 | 8536 ft | 246 kts | 339° |
| 2026-05-06 19:50 | 44.90661 | -0.93160 | 8998 ft | 254 kts | 14° |
| 2026-05-06 19:51 | 44.92199 | -0.91876 | 9477 ft | 262 kts | 39° |
| 2026-05-06 19:51 | 44.93227 | -0.89789 | 9952 ft | 270 kts | 71° |
| 2026-05-06 19:51 | 44.93270 | -0.87096 | 10338 ft | 282 kts | 105° |
| 2026-05-06 19:51 | 44.92401 | -0.84545 | 10480 ft | 304 kts | 118° |
| 2026-05-06 19:52 | 44.91366 | -0.81824 | 10669 ft | 325 kts | 117° |
| 2026-05-06 19:52 | 44.90292 | -0.78888 | 10848 ft | 347 kts | 116° |
| 2026-05-06 19:52 | 44.89172 | -0.75762 | 11022 ft | 366 kts | 116° |
| 2026-05-06 19:52 | 44.88016 | -0.72493 | 11435 ft | 377 kts | 116° |
| 2026-05-06 19:53 | 44.86926 | -0.69112 | 12066 ft | 381 kts | 111° |
| 2026-05-06 19:53 | 44.86004 | -0.65599 | 12737 ft | 383 kts | 109° |
| 2026-05-06 19:53 | 44.85127 | -0.62034 | 13402 ft | 387 kts | 108° |
| 2026-05-06 19:53 | 44.84255 | -0.58425 | 14008 ft | 391 kts | 108° |
| 2026-05-06 19:54 | 44.83362 | -0.54794 | 14588 ft | 394 kts | 109° |
| 2026-05-06 19:54 | 44.82443 | -0.51145 | 15171 ft | 397 kts | 109° |
| 2026-05-06 19:54 | 44.81519 | -0.47514 | 15750 ft | 400 kts | 109° |
| 2026-05-06 19:54 | 44.80574 | -0.43810 | 16278 ft | 404 kts | 109° |
| 2026-05-06 19:55 | 44.79620 | -0.40069 | 16832 ft | 407 kts | 109° |
| 2026-05-06 19:55 | 44.78658 | -0.36298 | 17407 ft | 410 kts | 109° |
| 2026-05-06 19:55 | 44.77690 | -0.32504 | 17955 ft | 413 kts | 109° |
| 2026-05-06 19:55 | 44.76714 | -0.28679 | 18474 ft | 416 kts | 109° |
| 2026-05-06 19:56 | 44.75731 | -0.24832 | 18935 ft | 419 kts | 109° |
| 2026-05-06 19:56 | 44.74738 | -0.20950 | 19387 ft | 422 kts | 108° |
| 2026-05-06 19:56 | 44.73738 | -0.17046 | 19851 ft | 426 kts | 108° |
| 2026-05-06 19:56 | 44.72741 | -0.13158 | 20298 ft | 429 kts | 108° |
| 2026-05-06 19:57 | 44.71725 | -0.09203 | 20734 ft | 432 kts | 108° |
| 2026-05-06 19:57 | 44.70699 | -0.05218 | 21155 ft | 435 kts | 108° |
| 2026-05-06 19:57 | 44.69663 | -0.01201 | 21572 ft | 438 kts | 108° |
| 2026-05-06 19:57 | 44.68619 | 0.02842 | 22006 ft | 441 kts | 108° |
| 2026-05-06 19:58 | 44.67565 | 0.06913 | 22409 ft | 444 kts | 108° |
| 2026-05-06 19:58 | 44.66504 | 0.11008 | 22823 ft | 447 kts | 108° |
| 2026-05-06 19:58 | 44.65435 | 0.15124 | 23238 ft | 449 kts | 108° |
| 2026-05-06 19:58 | 44.64359 | 0.19262 | 23623 ft | 452 kts | 108° |
| 2026-05-06 19:59 | 44.63272 | 0.23430 | 23950 ft | 455 kts | 108° |
| 2026-05-06 19:59 | 44.62197 | 0.27546 | 24363 ft | 454 kts | 108° |
| 2026-05-06 19:59 | 44.61111 | 0.31697 | 24842 ft | 452 kts | 108° |
| 2026-05-06 19:59 | 44.60029 | 0.35822 | 25322 ft | 450 kts | 108° |
| 2026-05-06 20:00 | 44.58947 | 0.39942 | 25805 ft | 448 kts | 108° |
| 2026-05-06 20:00 | 44.57871 | 0.44036 | 26316 ft | 445 kts | 108° |
| 2026-05-06 20:00 | 44.56803 | 0.48091 | 26825 ft | 443 kts | 108° |
| 2026-05-06 20:00 | 44.55735 | 0.52137 | 27346 ft | 440 kts | 108° |
| 2026-05-06 20:01 | 44.54675 | 0.56149 | 27870 ft | 437 kts | 108° |
| 2026-05-06 20:01 | 44.53621 | 0.60132 | 28407 ft | 434 kts | 108° |
| 2026-05-06 20:01 | 44.52574 | 0.64079 | 28953 ft | 430 kts | 108° |
| 2026-05-06 20:01 | 44.51535 | 0.67992 | 29508 ft | 427 kts | 108° |
| 2026-05-06 20:02 | 44.50499 | 0.71885 | 30060 ft | 423 kts | 108° |
| 2026-05-06 20:02 | 44.49476 | 0.75723 | 30537 ft | 419 kts | 109° |
| 2026-05-06 20:02 | 44.48462 | 0.79521 | 31014 ft | 414 kts | 109° |
| 2026-05-06 20:02 | 44.47473 | 0.83221 | 31497 ft | 408 kts | 109° |
| 2026-05-06 20:03 | 44.46483 | 0.86919 | 31996 ft | 403 kts | 109° |
| 2026-05-06 20:03 | 44.45507 | 0.90562 | 32496 ft | 396 kts | 110° |
| 2026-05-06 20:03 | 44.44546 | 0.94142 | 32974 ft | 391 kts | 110° |
| 2026-05-06 20:03 | 44.43578 | 0.97745 | 32928 ft | 400 kts | 110° |
| 2026-05-06 20:04 | 44.41581 | 1.05155 | 32988 ft | 414 kts | 110° |
| 2026-05-06 20:04 | 44.39506 | 1.12831 | 32979 ft | 429 kts | 111° |
| 2026-05-06 20:05 | 44.37368 | 1.20713 | 32991 ft | 442 kts | 111° |
| 2026-05-06 20:05 | 44.35154 | 1.28848 | 32979 ft | 452 kts | 111° |
| 2026-05-06 20:06 | 44.32889 | 1.37141 | 32987 ft | 461 kts | 111° |
| 2026-05-06 20:06 | 44.30585 | 1.45549 | 32986 ft | 470 kts | 111° |
| 2026-05-06 20:07 | 44.28219 | 1.54155 | 32983 ft | 478 kts | 111° |
| 2026-05-06 20:07 | 44.25823 | 1.62838 | 32961 ft | 483 kts | 112° |
| 2026-05-06 20:08 | 44.23396 | 1.71602 | 32975 ft | 484 kts | 112° |
| 2026-05-06 20:08 | 44.20958 | 1.80375 | 32973 ft | 485 kts | 112° |
| 2026-05-06 20:09 | 44.18512 | 1.89145 | 32963 ft | 484 kts | 112° |
| 2026-05-06 20:09 | 44.16083 | 1.97821 | 32970 ft | 483 kts | 112° |
| 2026-05-06 20:10 | 44.13631 | 2.06550 | 32977 ft | 482 kts | 112° |
| 2026-05-06 20:10 | 44.11182 | 2.15239 | 32980 ft | 481 kts | 112° |
| 2026-05-06 20:11 | 44.08734 | 2.23890 | 32978 ft | 480 kts | 112° |
| 2026-05-06 20:11 | 44.06297 | 2.32476 | 33005 ft | 480 kts | 113° |
| 2026-05-06 20:12 | 44.03841 | 2.41098 | 32992 ft | 479 kts | 113° |
| 2026-05-06 20:12 | 44.01374 | 2.49726 | 32990 ft | 480 kts | 113° |
| 2026-05-06 20:13 | 43.98896 | 2.58365 | 33002 ft | 481 kts | 114° |
| 2026-05-06 20:13 | 43.96421 | 2.66964 | 32993 ft | 483 kts | 114° |
| 2026-05-06 20:14 | 43.93913 | 2.75647 | 32994 ft | 484 kts | 114° |
| 2026-05-06 20:14 | 43.91393 | 2.84341 | 32981 ft | 486 kts | 114° |
| 2026-05-06 20:15 | 43.90119 | 2.88722 | 32377 ft | 494 kts | 114° |
| 2026-05-06 20:15 | 43.88832 | 2.93140 | 31743 ft | 492 kts | 114° |
| 2026-05-06 20:15 | 43.87564 | 2.97492 | 31058 ft | 492 kts | 114° |
| 2026-05-06 20:15 | 43.86279 | 3.01891 | 30363 ft | 492 kts | 114° |
| 2026-05-06 20:16 | 43.84991 | 3.06293 | 29563 ft | 493 kts | 114° |
| 2026-05-06 20:16 | 43.83699 | 3.10705 | 28966 ft | 488 kts | 114° |
| 2026-05-06 20:16 | 43.82427 | 3.15041 | 28400 ft | 483 kts | 114° |
| 2026-05-06 20:16 | 43.81183 | 3.19272 | 27904 ft | 477 kts | 114° |
| 2026-05-06 20:17 | 43.79939 | 3.23500 | 27379 ft | 472 kts | 114° |
| 2026-05-06 20:17 | 43.78701 | 3.27695 | 26845 ft | 467 kts | 114° |
| 2026-05-06 20:17 | 43.77476 | 3.31838 | 26350 ft | 463 kts | 114° |
| 2026-05-06 20:17 | 43.76259 | 3.35948 | 25828 ft | 459 kts | 115° |
| 2026-05-06 20:18 | 43.75054 | 3.40008 | 25338 ft | 455 kts | 115° |
| 2026-05-06 20:18 | 43.73857 | 3.44039 | 24842 ft | 451 kts | 114° |
| 2026-05-06 20:18 | 43.72730 | 3.47828 | 24376 ft | 448 kts | 115° |
| 2026-05-06 20:18 | 43.71546 | 3.51801 | 23884 ft | 445 kts | 115° |
| 2026-05-06 20:19 | 43.70367 | 3.55751 | 23366 ft | 442 kts | 115° |
| 2026-05-06 20:19 | 43.69210 | 3.59621 | 22815 ft | 439 kts | 114° |
| 2026-05-06 20:19 | 43.68048 | 3.63504 | 22298 ft | 435 kts | 115° |
| 2026-05-06 20:19 | 43.66896 | 3.67348 | 21805 ft | 431 kts | 115° |
| 2026-05-06 20:20 | 43.65752 | 3.71158 | 21322 ft | 427 kts | 115° |
| 2026-05-06 20:20 | 43.64618 | 3.74932 | 20845 ft | 424 kts | 115° |
| 2026-05-06 20:20 | 43.63492 | 3.78673 | 20371 ft | 420 kts | 115° |
| 2026-05-06 20:20 | 43.62371 | 3.82388 | 20040 ft | 418 kts | 115° |
| 2026-05-06 20:21 | 43.61252 | 3.86094 | 20013 ft | 414 kts | 115° |
| 2026-05-06 20:21 | 43.60160 | 3.89714 | 19982 ft | 400 kts | 115° |
| 2026-05-06 20:21 | 43.59107 | 3.93196 | 19970 ft | 386 kts | 115° |
| 2026-05-06 20:21 | 43.58091 | 3.96551 | 19974 ft | 372 kts | 115° |
| 2026-05-06 20:22 | 43.57039 | 3.99679 | 19975 ft | 357 kts | 120° |
| 2026-05-06 20:22 | 43.55911 | 4.02659 | 19970 ft | 343 kts | 121° |
| 2026-05-06 20:22 | 43.54799 | 4.05496 | 19976 ft | 330 kts | 122° |
| 2026-05-06 20:22 | 43.54080 | 4.07322 | 19973 ft | 321 kts | 122° |
| 2026-05-06 20:23 | 43.53038 | 4.09975 | 19967 ft | 308 kts | 122° |
| 2026-05-06 20:23 | 43.52039 | 4.12531 | 19966 ft | 298 kts | 122° |
| 2026-05-06 20:23 | 43.51064 | 4.15033 | 19986 ft | 299 kts | 122° |
| 2026-05-06 20:23 | 43.50061 | 4.17603 | 20010 ft | 309 kts | 122° |
| 2026-05-06 20:24 | 43.49031 | 4.20247 | 19948 ft | 316 kts | 121° |
| 2026-05-06 20:24 | 43.47970 | 4.22977 | 19339 ft | 330 kts | 121° |
| 2026-05-06 20:24 | 43.46876 | 4.25796 | 18763 ft | 338 kts | 121° |
| 2026-05-06 20:24 | 43.45759 | 4.28676 | 18217 ft | 344 kts | 121° |
| 2026-05-06 20:25 | 43.44621 | 4.31609 | 17543 ft | 351 kts | 121° |
| 2026-05-06 20:25 | 43.43435 | 4.34660 | 16363 ft | 372 kts | 121° |
| 2026-05-06 20:25 | 43.42178 | 4.37891 | 15292 ft | 391 kts | 120° |
| 2026-05-06 20:25 | 43.40909 | 4.41160 | 14710 ft | 393 kts | 120° |
| 2026-05-06 20:26 | 43.39626 | 4.44456 | 14314 ft | 389 kts | 120° |
| 2026-05-06 20:26 | 43.38354 | 4.47717 | 13904 ft | 385 kts | 120° |
| 2026-05-06 20:26 | 43.37080 | 4.50944 | 13419 ft | 384 kts | 121° |
| 2026-05-06 20:26 | 43.35803 | 4.54154 | 12955 ft | 381 kts | 121° |
| 2026-05-06 20:27 | 43.34537 | 4.57330 | 12566 ft | 376 kts | 121° |
| 2026-05-06 20:27 | 43.33300 | 4.60435 | 12445 ft | 364 kts | 121° |
| 2026-05-06 20:27 | 43.32096 | 4.63458 | 12066 ft | 361 kts | 121° |
| 2026-05-06 20:27 | 43.30900 | 4.66456 | 11908 ft | 351 kts | 121° |
| 2026-05-06 20:28 | 43.29743 | 4.69354 | 11789 ft | 341 kts | 121° |
| 2026-05-06 20:28 | 43.28515 | 4.72091 | 11290 ft | 341 kts | 133° |
| 2026-05-06 20:28 | 43.26726 | 4.74141 | 10856 ft | 335 kts | 154° |
| 2026-05-06 20:28 | 43.24674 | 4.75574 | 10670 ft | 325 kts | 157° |
| 2026-05-06 20:29 | 43.22619 | 4.76927 | 10155 ft | 329 kts | 158° |
| 2026-05-06 20:29 | 43.20522 | 4.78234 | 9670 ft | 330 kts | 162° |
| 2026-05-06 20:29 | 43.18480 | 4.79707 | 9169 ft | 336 kts | 143° |
| 2026-05-06 20:29 | 43.16960 | 4.82078 | 8902 ft | 334 kts | 126° |
| 2026-05-06 20:30 | 43.15699 | 4.84767 | 8381 ft | 338 kts | 123° |
| 2026-05-06 20:30 | 43.13943 | 4.90721 | 7372 ft | 342 kts | 96° |
| 2026-05-06 20:30 | 43.13758 | 4.93951 | 6873 ft | 335 kts | 93° |
| 2026-05-06 20:31 | 43.13636 | 4.97109 | 6381 ft | 329 kts | 93° |
| 2026-05-06 20:31 | 43.13526 | 5.00203 | 5862 ft | 323 kts | 92° |
| 2026-05-06 20:31 | 43.13420 | 5.03216 | 5353 ft | 317 kts | 92° |
| 2026-05-06 20:31 | 43.13314 | 5.06195 | 5057 ft | 306 kts | 92° |
| 2026-05-06 20:32 | 43.13548 | 5.08974 | 4980 ft | 284 kts | 67° |
| 2026-05-06 20:32 | 43.14453 | 5.11242 | 4989 ft | 261 kts | 54° |
| 2026-05-06 20:32 | 43.15442 | 5.13229 | 4964 ft | 242 kts | 53° |
| 2026-05-06 20:32 | 43.15702 | 5.13741 | 4963 ft | 237 kts | 53° |
| 2026-05-06 20:33 | 43.16545 | 5.15400 | 4783 ft | 230 kts | 52° |
| 2026-05-06 20:33 | 43.17471 | 5.17213 | 4325 ft | 233 kts | 52° |
| 2026-05-06 20:33 | 43.18396 | 5.19051 | 3892 ft | 235 kts | 52° |
| 2026-05-06 20:33 | 43.19322 | 5.20906 | 3490 ft | 237 kts | 52° |
| 2026-05-06 20:34 | 43.20231 | 5.22741 | 3123 ft | 234 kts | 52° |
| 2026-05-06 20:34 | 43.21112 | 5.24530 | 2990 ft | 216 kts | 52° |
| 2026-05-06 20:34 | 43.21925 | 5.26189 | 2983 ft | 207 kts | 53° |
| 2026-05-06 20:34 | 43.22727 | 5.27835 | 3004 ft | 207 kts | 52° |
| 2026-05-06 20:35 | 43.23537 | 5.29490 | 2985 ft | 210 kts | 52° |
| 2026-05-06 20:35 | 43.24460 | 5.31015 | 2979 ft | 206 kts | 30° |
| 2026-05-06 20:35 | 43.25775 | 5.31697 | 2671 ft | 205 kts | 5° |
| 2026-05-06 20:35 | 43.27182 | 5.31970 | 2277 ft | 204 kts | 3° |
| 2026-05-06 20:36 | 43.28569 | 5.32214 | 2027 ft | 194 kts | 2° |
| 2026-05-06 20:36 | 43.29848 | 5.32449 | 1989 ft | 177 kts | 2° |
| 2026-05-06 20:36 | 43.31055 | 5.32676 | 1985 ft | 175 kts | 2° |
| 2026-05-06 20:36 | 43.32254 | 5.32895 | 1996 ft | 176 kts | 2° |
| 2026-05-06 20:37 | 43.33506 | 5.33120 | 2016 ft | 185 kts | 2° |
| 2026-05-06 20:37 | 43.34783 | 5.33330 | 1995 ft | 181 kts | 357° |
| 2026-05-06 20:37 | 43.36023 | 5.33377 | 1990 ft | 178 kts | 4° |
| 2026-05-06 20:37 | 43.37253 | 5.33583 | 1989 ft | 177 kts | 352° |
| 2026-05-06 20:38 | 43.38366 | 5.33071 | 1980 ft | 165 kts | 319° |
| 2026-05-06 20:38 | 43.39030 | 5.31795 | 1705 ft | 172 kts | 283° |
| 2026-05-06 20:38 | 43.39207 | 5.30221 | 1577 ft | 160 kts | 277° |
| 2026-05-06 20:38 | 43.39383 | 5.28758 | 1405 ft | 153 kts | 282° |
| 2026-05-06 20:39 | 43.39713 | 5.27390 | 1243 ft | 151 kts | 295° |
| 2026-05-06 20:39 | 43.40341 | 5.26202 | 1059 ft | 156 kts | 311° |
| 2026-05-06 20:39 | 43.41104 | 5.25127 | 740 ft | 157 kts | 309° |
| 2026-05-06 20:39 | 43.41846 | 5.24080 | 495 ft | 152 kts | 310° |
| 2026-05-06 20:40 | 43.42593 | 5.23022 | 255 ft | 153 kts | 309° |
| 2026-05-06 20:40 | 43.43339 | 5.21980 | 61 ft | 156 kts | 311° |
| 2026-05-06 20:40 | 43.44069 | 5.20921 | 21 ft | 140 kts | 313° |
| 2026-05-06 20:40 | 43.44599 | 5.20172 | 17 ft | 81 kts | 314° |
| 2026-05-06 20:41 | 43.44823 | 5.19859 | 16 ft | 32 kts | 314° |
| 2026-05-06 20:41 | 43.44967 | 5.19822 | 18 ft | 23 kts | 52° |
| 2026-05-06 20:41 | 43.44942 | 5.19962 | 16 ft | 0 kts | 134° |
| 2026-05-06 20:42 | 43.44940 | 5.19964 | 16 ft | 2 kts | 134° |
| 2026-05-06 20:42 | 43.44911 | 5.20005 | 16 ft | 10 kts | 134° |
| 2026-05-06 20:42 | 43.44842 | 5.20104 | 16 ft | 18 kts | 132° |
| 2026-05-06 20:42 | 43.44738 | 5.20253 | 16 ft | 25 kts | 134° |
| 2026-05-06 20:43 | 43.44638 | 5.20395 | 17 ft | 23 kts | 134° |
| 2026-05-06 20:43 | 43.44513 | 5.20572 | 17 ft | 29 kts | 134° |
| 2026-05-06 20:43 | 43.44395 | 5.20741 | 17 ft | 14 kts | 134° |
| 2026-05-06 20:43 | 43.44317 | 5.20865 | 17 ft | 20 kts | 122° |
| 2026-05-06 20:44 | 43.44245 | 5.21020 | 19 ft | 18 kts | 131° |
| 2026-05-06 20:44 | 43.44210 | 5.21072 | 21 ft | 5 kts | 132° |
| 2026-05-06 20:44 | 43.44173 | 5.21127 | 22 ft | 11 kts | 133° |
| 2026-05-06 20:44 | 43.44107 | 5.21224 | 27 ft | 16 kts | 133° |
| 2026-05-06 20:45 | 43.44016 | 5.21355 | 28 ft | 21 kts | 137° |
| 2026-05-06 20:45 | 43.43923 | 5.21495 | 32 ft | 18 kts | 115° |
| 2026-05-06 20:45 | 43.43978 | 5.21653 | 33 ft | 16 kts | 72° |
| 2026-05-06 20:45 | 43.43971 | 5.21712 | 32 ft | 7 kts | 129° |
| 2026-05-06 20:46 | 43.43924 | 5.21783 | 36 ft | 13 kts | 134° |
| 2026-05-06 20:46 | 43.43848 | 5.21890 | 38 ft | 18 kts | 134° |
| 2026-05-06 20:46 | 43.43789 | 5.22022 | 41 ft | 18 kts | 75° |
| 2026-05-06 20:46 | 43.43859 | 5.22132 | 42 ft | 16 kts | 57° |
| 2026-05-06 20:47 | 43.43827 | 5.22228 | 44 ft | 1 kts | 167° |
| 2026-05-06 20:47 | 43.43808 | 5.22244 | 44 ft | 5 kts | 127° |
| 2026-05-06 20:47 | 43.43812 | 5.22288 | 45 ft | 4 kts | 74° |
| 2026-05-06 20:47 | 43.43815 | 5.22305 | 44 ft | 1 kts | 73° |
| 2026-05-06 20:48 | 43.43816 | 5.22307 | 45 ft | 0 kts | 73° |
| 2026-05-06 20:54 | 43.43815 | 5.22307 | 45 ft | 0 kts | 73° |